createdAt,value
2019-01-03T00:02:18.780Z,0.80
2019-01-03T00:04:51.445Z,1.13
2019-01-03T00:07:33.425Z,0.87
2019-01-03T00:10:12.317Z,2.20
2019-01-03T00:12:45.041Z,2.17
2019-01-03T00:15:20.828Z,1.23
2019-01-03T00:18:07.461Z,0.93
2019-01-03T00:20:52.485Z,0.67
2019-01-03T00:23:34.840Z,1.27
2019-01-03T00:26:04.983Z,1.43
2019-01-03T00:28:37.907Z,1.23
2019-01-03T00:31:24.835Z,1.27
2019-01-03T00:33:54.974Z,2.37
2019-01-03T00:36:31.113Z,0.80
2019-01-03T00:39:07.228Z,2.20
2019-01-03T00:41:43.842Z,2.17
2019-01-03T00:44:16.902Z,0.97
2019-01-03T00:46:59.382Z,1.40
2019-01-03T00:49:47.931Z,0.90
2019-01-03T00:52:18.360Z,3.33
2019-01-03T00:54:54.625Z,1.37
2019-01-03T00:57:43.093Z,1.23
2019-01-03T01:00:19.175Z,1.37
2019-01-03T01:03:05.797Z,1.00
2019-01-03T01:05:52.274Z,4.23
2019-01-03T01:08:25.073Z,3.63
2019-01-03T01:10:58.141Z,2.27
2019-01-03T01:13:28.307Z,0.90
2019-01-03T01:16:07.412Z,3.60
2019-01-03T01:18:43.762Z,1.10
2019-01-03T01:21:17.314Z,1.27
2019-01-03T01:23:47.517Z,1.33
2019-01-03T01:26:20.408Z,2.23
2019-01-03T01:28:53.380Z,3.70
2019-01-03T01:31:41.913Z,5.23
2019-01-03T01:34:14.618Z,3.97
2019-01-03T01:36:47.819Z,2.57
2019-01-03T01:39:20.908Z,2.07
2019-01-03T01:41:51.069Z,4.60
2019-01-03T01:44:24.008Z,1.73
2019-01-03T01:46:59.808Z,2.03
2019-01-03T01:49:29.892Z,4.10
2019-01-03T01:52:12.076Z,2.50
2019-01-03T01:54:48.170Z,1.63
2019-01-03T01:57:27.041Z,3.43
2019-01-03T01:59:57.125Z,5.33
2019-01-03T02:02:36.058Z,4.80
2019-01-03T02:05:18.809Z,5.63
2019-01-03T02:08:06.867Z,6.70
2019-01-03T02:10:42.556Z,2.60
2019-01-03T02:13:30.893Z,3.97
2019-01-03T02:16:00.997Z,3.83
2019-01-03T02:18:34.042Z,6.63
2019-01-03T02:21:20.201Z,4.13
2019-01-03T02:23:59.265Z,4.63
2019-01-03T02:26:31.890Z,4.53
2019-01-03T02:29:10.512Z,6.77
2019-01-03T02:31:58.837Z,3.03
2019-01-03T02:34:45.383Z,4.10
2019-01-03T02:37:31.813Z,5.90
2019-01-03T02:40:04.600Z,4.57
2019-01-03T02:42:43.629Z,4.70
2019-01-03T02:45:13.713Z,5.03
2019-01-03T02:47:43.804Z,1.83
2019-01-03T02:50:16.854Z,1.97
2019-01-03T02:53:02.993Z,8.30
2019-01-03T02:55:38.915Z,4.33
2019-01-03T02:58:15.291Z,2.23
2019-01-03T03:00:45.429Z,3.63
2019-01-03T03:03:24.551Z,3.63
2019-01-03T03:05:58.004Z,6.07
2019-01-03T03:08:28.112Z,3.67
2019-01-03T03:11:03.771Z,3.37
2019-01-03T03:13:33.892Z,3.63
2019-01-03T03:16:04.010Z,6.17
2019-01-03T03:18:39.973Z,3.03
2019-01-03T03:21:15.611Z,4.07
2019-01-03T03:23:45.777Z,4.83
2019-01-03T03:26:15.855Z,3.33
2019-01-03T03:28:55.165Z,2.57
2019-01-03T03:31:37.310Z,7.80
2019-01-03T03:34:23.611Z,3.97
2019-01-03T03:37:10.204Z,5.43
2019-01-03T03:40:04.558Z,4.17
2019-01-03T03:42:50.935Z,3.13
2019-01-03T03:45:21.202Z,2.40
2019-01-03T03:48:00.708Z,1.27
2019-01-03T03:50:33.683Z,3.83
2019-01-03T03:53:06.872Z,5.90
2019-01-03T03:55:53.216Z,2.53
2019-01-03T03:58:39.744Z,3.87
2019-01-03T04:01:18.631Z,4.50
2019-01-03T04:03:48.711Z,1.60
2019-01-03T04:06:30.864Z,5.93
2019-01-03T04:09:12.492Z,6.53
2019-01-03T04:11:45.445Z,4.57
2019-01-03T04:14:17.994Z,2.50
2019-01-03T04:16:57.286Z,4.93
2019-01-03T04:19:27.445Z,6.17
2019-01-03T04:22:06.861Z,3.50
2019-01-03T04:24:39.411Z,2.83
2019-01-03T04:27:25.887Z,3.20
2019-01-03T04:30:08.140Z,3.30
2019-01-03T04:32:56.363Z,5.47
2019-01-03T04:35:29.077Z,4.93
2019-01-03T04:38:14.441Z,2.60
2019-01-03T04:40:50.341Z,5.30
2019-01-03T04:43:29.341Z,2.40
2019-01-03T04:46:08.563Z,2.07
2019-01-03T04:48:38.655Z,3.07
2019-01-03T04:51:08.739Z,1.83
2019-01-03T04:53:38.975Z,3.97
2019-01-03T04:56:09.150Z,4.97
2019-01-03T04:58:39.318Z,6.00
2019-01-03T05:01:47.102Z,5.03
2019-01-03T05:04:20.256Z,3.97
2019-01-03T05:06:50.418Z,3.47
2019-01-03T05:09:20.516Z,7.23
2019-01-03T05:11:59.529Z,3.60
2019-01-03T05:14:32.337Z,3.77
2019-01-03T05:17:20.909Z,3.57
2019-01-03T05:22:45.899Z,6.07
2019-01-03T05:25:15.992Z,4.40
2019-01-03T05:27:48.941Z,5.07
2019-01-03T05:30:19.032Z,3.87
2019-01-03T05:33:07.521Z,4.53
2019-01-03T05:35:40.192Z,4.13
2019-01-03T05:38:19.131Z,10.10
2019-01-03T05:40:49.250Z,2.83
2019-01-03T05:43:19.401Z,2.67
2019-01-03T05:46:05.828Z,3.23
2019-01-03T05:48:41.600Z,3.87
2019-01-03T05:51:11.688Z,4.03
2019-01-03T05:53:44.615Z,2.30
2019-01-03T05:56:33.265Z,1.03
2019-01-03T05:59:09.199Z,1.03
2019-01-03T06:01:51.368Z,1.50
2019-01-03T06:04:21.504Z,0.70
2019-01-03T06:06:51.596Z,2.83
2019-01-03T06:09:30.491Z,1.93
2019-01-03T06:12:03.479Z,4.10
2019-01-03T06:14:50.027Z,1.30
2019-01-03T06:17:35.045Z,1.53
2019-01-03T06:20:20.832Z,3.33
2019-01-03T06:22:50.923Z,1.77
2019-01-03T06:25:27.115Z,5.77
2019-01-03T06:28:15.128Z,2.13
2019-01-03T06:30:54.136Z,2.47
2019-01-03T06:33:33.083Z,1.40
2019-01-03T06:36:06.383Z,2.57
2019-01-03T06:38:48.535Z,2.40
2019-01-03T06:41:36.737Z,3.60
2019-01-03T06:44:19.039Z,4.23
2019-01-03T06:47:00.959Z,2.97
2019-01-03T06:49:47.522Z,1.70
2019-01-03T06:52:23.301Z,0.67
2019-01-03T06:54:53.392Z,1.63
2019-01-03T06:57:38.644Z,3.00
2019-01-03T07:00:09.144Z,1.77
2019-01-03T07:02:57.543Z,1.33
2019-01-03T07:05:30.207Z,2.00
2019-01-03T07:08:16.708Z,1.03
2019-01-03T07:10:58.416Z,0.80
2019-01-03T07:13:44.971Z,0.60
2019-01-03T07:16:15.061Z,1.90
2019-01-03T07:19:01.805Z,1.87
2019-01-03T07:21:44.080Z,2.47
2019-01-03T07:24:30.756Z,1.23
2019-01-03T07:27:12.692Z,2.10
2019-01-03T07:29:45.655Z,0.87
2019-01-03T07:32:15.742Z,2.37
2019-01-03T07:34:48.586Z,1.10
2019-01-03T07:37:24.583Z,1.33
2019-01-03T07:39:55.203Z,1.53
2019-01-03T07:42:41.617Z,0.70
2019-01-03T07:45:11.876Z,2.40
2019-01-03T07:47:50.850Z,1.87
2019-01-03T07:50:20.999Z,3.13
2019-01-03T07:53:07.199Z,2.57
2019-01-03T07:55:53.552Z,0.60
2019-01-03T07:58:26.523Z,0.70
2019-01-03T08:01:02.698Z,1.17
2019-01-03T08:03:50.904Z,1.57
2019-01-03T08:06:30.206Z,1.10
2019-01-03T08:09:00.304Z,0.90
2019-01-03T08:11:30.475Z,0.80
2019-01-03T08:14:06.488Z,1.20
2019-01-03T08:16:48.736Z,0.93
2019-01-03T08:19:42.484Z,2.33
2019-01-03T08:22:15.396Z,2.00
2019-01-03T08:24:45.564Z,0.90
2019-01-03T08:27:27.673Z,0.70
2019-01-03T08:30:14.210Z,0.70
2019-01-03T08:32:44.380Z,0.90
2019-01-03T08:35:26.644Z,0.87
2019-01-03T08:38:12.003Z,2.73
2019-01-03T08:40:44.915Z,3.20
2019-01-03T08:43:31.247Z,2.13
2019-01-03T08:46:17.689Z,2.53
2019-01-03T08:49:02.888Z,1.37
2019-01-03T08:51:32.973Z,3.83
2019-01-03T08:54:19.531Z,3.80
2019-01-03T08:56:58.516Z,3.63
2019-01-03T08:59:45.091Z,6.13
2019-01-03T09:02:18.069Z,8.17
2019-01-03T09:04:54.368Z,2.37
2019-01-03T09:07:24.471Z,2.23
2019-01-03T09:09:54.639Z,1.63
2019-01-03T09:12:24.865Z,5.67
2019-01-03T09:15:11.543Z,0.57
2019-01-03T09:17:50.560Z,0.67
2019-01-03T09:20:20.643Z,0.77
2019-01-03T09:23:08.863Z,1.90
2019-01-03T09:25:50.703Z,0.83
2019-01-03T09:28:29.839Z,1.03
2019-01-03T09:31:05.759Z,0.60
2019-01-03T09:33:35.924Z,0.60
2019-01-03T09:36:15.013Z,0.50
2019-01-03T09:39:01.510Z,0.70
2019-01-03T09:41:40.247Z,1.67
2019-01-03T09:44:22.394Z,0.60
2019-01-03T09:46:50.861Z,1.97
2019-01-03T09:49:19.519Z,0.90
2019-01-03T09:51:47.978Z,1.40
2019-01-03T09:54:16.437Z,0.80
2019-01-03T09:56:45.047Z,1.33
2019-01-03T09:59:13.555Z,0.80
2019-01-03T10:01:42.009Z,2.07
2019-01-03T10:04:10.736Z,0.90
2019-01-03T10:06:39.268Z,0.80
2019-01-03T10:09:07.800Z,0.60
2019-01-03T10:11:36.392Z,1.13
2019-01-03T10:14:04.839Z,2.43
2019-01-03T10:16:33.343Z,5.47
2019-01-03T10:19:01.896Z,2.00
2019-01-03T10:21:30.425Z,1.10
2019-01-03T10:23:58.928Z,0.90
2019-01-03T10:26:27.449Z,1.93
2019-01-03T10:28:55.900Z,0.80
2019-01-03T10:31:24.346Z,0.60
2019-01-03T10:33:52.841Z,1.80
2019-01-03T10:36:24.384Z,0.70
2019-01-03T10:38:51.499Z,1.17
2019-01-03T10:41:20.013Z,1.03
2019-01-03T10:43:48.451Z,1.13
2019-01-03T10:46:16.971Z,1.03
2019-01-03T10:48:45.504Z,0.93
2019-01-03T10:51:14.071Z,0.70
2019-01-03T10:53:42.519Z,2.10
2019-01-03T10:56:11.025Z,1.03
2019-01-03T10:58:39.495Z,0.77
2019-01-03T11:01:07.944Z,0.80
2019-01-03T11:03:37.713Z,0.77
2019-01-03T11:06:06.183Z,1.83
2019-01-03T11:08:34.630Z,0.80
2019-01-03T11:11:03.237Z,0.80
2019-01-03T11:13:31.694Z,1.37
2019-01-03T11:16:00.231Z,0.67
2019-01-03T11:18:28.725Z,0.70
2019-01-03T11:20:57.166Z,0.70
2019-01-03T11:23:25.652Z,1.07
2019-01-03T11:25:54.191Z,0.57
2019-01-03T11:28:22.649Z,0.60
2019-01-03T11:30:51.107Z,1.03
2019-01-03T11:33:19.670Z,0.70
2019-01-03T11:35:48.126Z,0.60
2019-01-03T11:38:16.731Z,3.70
2019-01-03T11:40:45.264Z,0.50
2019-01-03T11:43:13.707Z,0.73
2019-01-03T11:45:42.395Z,0.60
2019-01-03T11:48:10.849Z,0.57
2019-01-03T11:50:39.311Z,1.43
2019-01-03T11:53:07.834Z,1.07
2019-01-03T11:55:36.267Z,0.83
2019-01-03T11:58:04.721Z,0.50
2019-01-03T12:00:33.226Z,1.00
2019-01-03T12:03:01.683Z,0.80
2019-01-03T12:05:30.141Z,0.87
2019-01-03T12:08:00.183Z,0.70
2019-01-03T12:10:28.636Z,1.17
2019-01-03T12:12:57.084Z,7.63
2019-01-03T12:15:25.590Z,2.67
2019-01-03T12:17:54.048Z,0.70
2019-01-03T12:20:22.492Z,0.67
2019-01-03T12:22:51.010Z,0.87
2019-01-03T12:25:19.524Z,1.23
2019-01-03T12:27:47.971Z,0.90
2019-01-03T12:30:16.560Z,0.83
2019-01-03T12:32:45.019Z,0.60
2019-01-03T12:35:13.468Z,0.87
2019-01-03T12:37:41.986Z,1.43
2019-01-03T12:40:10.507Z,0.83
2019-01-03T12:42:38.960Z,0.77
2019-01-03T12:45:08.058Z,0.70
2019-01-03T12:47:36.508Z,1.13
2019-01-03T12:50:08.387Z,2.43
2019-01-03T12:52:36.847Z,1.00
2019-01-03T12:55:05.785Z,1.80
2019-01-03T12:57:34.256Z,1.17
2019-01-03T13:00:02.777Z,1.00
2019-01-03T13:02:31.277Z,1.13
2019-01-03T13:04:59.728Z,1.30
2019-01-03T13:07:28.202Z,0.80
2019-01-03T13:09:56.712Z,1.10
2019-01-03T13:12:25.169Z,1.77
2019-01-03T13:14:53.738Z,0.87
2019-01-03T13:17:22.248Z,0.87
2019-01-03T13:19:50.710Z,1.67
2019-01-03T13:22:19.165Z,0.90
2019-01-03T13:24:47.656Z,0.80
2019-01-03T13:27:16.121Z,0.90
2019-01-03T13:29:44.576Z,0.90
2019-01-03T13:32:13.094Z,1.17
2019-01-03T13:34:41.620Z,0.70
2019-01-03T13:37:10.072Z,1.53
2019-01-03T13:39:38.577Z,3.10
2019-01-03T13:42:07.101Z,2.33
2019-01-03T13:44:35.548Z,0.67
2019-01-03T13:47:04.137Z,2.17
2019-01-03T13:49:32.660Z,1.70
2019-01-03T13:52:01.123Z,1.03
2019-01-03T13:54:29.710Z,0.70
2019-01-03T13:56:58.373Z,1.50
2019-01-03T13:59:26.869Z,1.10
2019-01-03T14:01:55.461Z,4.73
2019-01-03T14:04:23.913Z,0.80
2019-01-03T14:06:52.362Z,1.43
2019-01-03T14:09:20.870Z,1.23
2019-01-03T14:11:49.412Z,0.80
2019-01-03T14:14:17.942Z,1.40
2019-01-03T14:16:46.653Z,1.60
2019-01-03T14:19:15.087Z,1.40
2019-01-03T14:21:43.566Z,0.70
2019-01-03T14:24:12.155Z,1.80
2019-01-03T14:26:40.672Z,0.70
2019-01-03T14:29:09.219Z,1.40
2019-01-03T14:31:37.823Z,0.80
2019-01-03T14:34:06.443Z,2.80
2019-01-03T14:36:35.005Z,0.97
2019-01-03T14:39:04.735Z,0.70
2019-01-03T14:41:33.202Z,0.70
2019-01-03T14:44:01.743Z,3.70
2019-01-03T14:46:30.252Z,1.33
2019-01-03T14:48:58.730Z,0.83
2019-01-03T14:51:27.187Z,0.90
2019-01-03T14:53:55.708Z,0.67
2019-01-03T14:56:24.238Z,2.80
2019-01-03T14:58:52.690Z,2.30
2019-01-03T15:01:21.492Z,1.00
2019-01-03T15:03:49.945Z,1.40
2019-01-03T15:06:18.393Z,1.10
2019-01-03T15:08:46.923Z,0.90
2019-01-03T15:11:15.375Z,1.37
2019-01-03T15:13:43.862Z,1.27
2019-01-03T15:16:31.729Z,1.30
2019-01-03T15:19:00.185Z,1.70
2019-01-03T15:21:28.638Z,6.07
2019-01-03T15:23:57.134Z,4.03
2019-01-03T15:26:25.665Z,1.10
2019-01-03T15:28:54.191Z,1.73
2019-01-03T15:31:22.660Z,1.17
2019-01-03T15:33:51.106Z,2.07
2019-01-03T15:36:19.569Z,1.60
2019-01-03T15:38:48.023Z,1.57
2019-01-03T15:41:16.569Z,1.57
2019-01-03T15:43:45.088Z,1.80
2019-01-03T15:46:13.587Z,2.53
2019-01-03T15:48:42.174Z,3.77
2019-01-03T15:51:10.633Z,2.57
2019-01-03T15:53:39.083Z,2.50
2019-01-03T15:56:07.590Z,2.53
2019-01-03T15:58:36.050Z,1.83
2019-01-03T16:01:04.501Z,1.30
2019-01-03T16:03:33.087Z,1.93
2019-01-03T16:06:01.592Z,1.50
2019-01-03T16:08:30.060Z,1.20
2019-01-03T16:10:58.653Z,1.67
2019-01-03T16:13:27.163Z,1.77
2019-01-03T16:15:55.620Z,2.90
2019-01-03T16:18:43.420Z,2.00
2019-01-03T16:21:12.122Z,2.03
2019-01-03T16:23:40.593Z,8.53
2019-01-03T16:26:09.045Z,2.60
2019-01-03T16:28:37.548Z,3.13
2019-01-03T16:31:06.068Z,3.33
2019-01-03T16:33:34.578Z,1.53
2019-01-03T16:36:03.098Z,3.80
2019-01-03T16:38:31.613Z,3.10
2019-01-03T16:41:00.066Z,2.57
2019-01-03T16:43:28.606Z,2.70
2019-01-03T16:45:57.131Z,3.07
2019-01-03T16:48:25.592Z,1.60
2019-01-03T16:50:54.183Z,1.70
2019-01-03T16:53:22.639Z,1.40
2019-01-03T16:55:51.196Z,1.93
2019-01-03T16:58:19.718Z,2.33
2019-01-03T17:00:48.166Z,4.57
2019-01-03T17:03:16.647Z,2.10
2019-01-03T17:05:45.184Z,2.80
2019-01-03T17:08:13.647Z,1.70
2019-01-03T17:10:42.095Z,1.80
2019-01-03T17:13:10.635Z,6.70
2019-01-03T17:15:39.165Z,2.00
2019-01-03T17:18:07.618Z,2.90
2019-01-03T17:20:36.140Z,1.60
2019-01-03T17:23:04.664Z,1.97
2019-01-03T17:25:33.122Z,3.20
2019-01-03T17:28:01.776Z,2.30
2019-01-03T17:30:30.234Z,2.57
2019-01-03T17:32:58.698Z,1.90
2019-01-03T17:35:27.218Z,2.97
2019-01-03T17:37:55.666Z,4.97
2019-01-03T17:40:24.200Z,3.37
2019-01-03T17:42:52.709Z,3.03
2019-01-03T17:45:21.157Z,2.20
2019-01-03T17:47:49.628Z,2.57
2019-01-03T17:50:18.211Z,2.60
2019-01-03T17:52:47.746Z,2.50
2019-01-03T17:55:16.294Z,2.67
2019-01-03T17:57:44.761Z,4.50
2019-01-03T18:00:16.377Z,2.57
2019-01-03T18:02:47.815Z,3.70
2019-01-03T18:05:16.282Z,3.13
2019-01-03T18:07:44.836Z,4.40
2019-01-03T18:10:14.685Z,3.33
2019-01-03T18:12:43.263Z,6.57
2019-01-03T18:15:11.858Z,3.23
2019-01-03T18:17:40.387Z,4.53
2019-01-03T18:20:14.417Z,2.93
2019-01-03T18:22:42.941Z,4.77
2019-01-03T18:25:11.744Z,3.10
2019-01-03T18:27:40.332Z,3.23
2019-01-03T18:30:11.321Z,3.97
2019-01-03T18:32:39.782Z,3.10
2019-01-03T18:35:08.453Z,5.83
2019-01-03T18:37:36.989Z,4.80
2019-01-03T18:40:11.256Z,4.77
2019-01-03T18:42:39.713Z,4.47
2019-01-03T18:45:13.745Z,5.63
2019-01-03T18:47:42.199Z,9.63
2019-01-03T18:50:10.725Z,4.50
2019-01-03T18:52:39.254Z,7.77
2019-01-03T18:55:11.003Z,6.00
2019-01-03T18:57:39.661Z,3.40
2019-01-03T19:00:11.196Z,3.60
2019-01-03T19:02:39.861Z,5.20
2019-01-03T19:05:08.616Z,3.93
2019-01-03T19:07:37.083Z,4.70
2019-01-03T19:10:08.495Z,3.17
2019-01-03T19:12:37.024Z,3.90
2019-01-03T19:15:07.773Z,3.00
2019-01-03T19:17:36.474Z,3.07
2019-01-03T19:20:08.170Z,3.33
2019-01-03T19:22:36.710Z,3.63
2019-01-03T19:25:10.921Z,2.50
2019-01-03T19:27:39.491Z,4.33
2019-01-03T19:30:12.552Z,2.93
2019-01-03T19:32:41.462Z,8.03
2019-01-03T19:35:11.683Z,4.43
2019-01-03T19:37:40.255Z,2.90
2019-01-03T19:40:11.485Z,2.83
2019-01-03T19:42:40.805Z,2.57
2019-01-03T19:45:11.421Z,2.53
2019-01-03T19:47:39.941Z,3.93
2019-01-03T19:50:27.881Z,3.27
2019-01-03T19:52:56.411Z,2.70
2019-01-03T19:55:24.918Z,2.70
2019-01-03T19:57:53.423Z,3.67
2019-01-03T20:00:21.965Z,3.20
2019-01-03T20:02:50.452Z,5.10
2019-01-03T20:05:19.057Z,2.87
2019-01-03T20:07:47.572Z,2.80
2019-01-03T20:10:16.036Z,2.73
2019-01-03T20:12:44.767Z,4.13
2019-01-03T20:15:14.571Z,2.50
2019-01-03T20:17:43.166Z,2.77
2019-01-03T20:20:11.801Z,2.43
2019-01-03T20:22:40.330Z,2.80
2019-01-03T20:25:10.393Z,2.97
2019-01-03T20:27:38.989Z,3.40
2019-01-03T20:30:10.082Z,3.97
2019-01-03T20:32:38.754Z,4.13
2019-01-03T20:35:07.924Z,3.73
2019-01-03T20:37:36.588Z,5.37
2019-01-03T20:40:07.677Z,3.90
2019-01-03T20:42:36.295Z,3.50
2019-01-03T20:45:10.150Z,3.43
2019-01-03T20:47:38.747Z,3.60
2019-01-03T20:50:09.978Z,5.57
2019-01-03T20:52:38.519Z,3.30
2019-01-03T20:55:08.402Z,2.87
2019-01-03T20:57:36.915Z,3.17
2019-01-03T21:00:14.066Z,3.40
2019-01-03T21:02:42.762Z,4.30
2019-01-03T21:05:11.286Z,2.87
2019-01-03T21:07:39.755Z,6.03
2019-01-03T21:10:22.631Z,3.17
2019-01-03T21:12:51.203Z,5.57
2019-01-03T21:15:20.006Z,3.77
2019-01-03T21:17:48.462Z,5.77
2019-01-03T21:20:17.217Z,4.43
2019-01-03T21:22:45.800Z,5.30
2019-01-03T21:25:14.392Z,3.90
2019-01-03T21:27:42.933Z,2.97
2019-01-03T21:30:17.059Z,5.23
2019-01-03T21:32:45.580Z,3.43
2019-01-03T21:35:14.091Z,3.60
2019-01-03T21:37:42.621Z,5.87
2019-01-03T21:40:12.005Z,4.57
2019-01-03T21:42:40.597Z,4.23
2019-01-03T21:45:09.379Z,3.43
2019-01-03T21:47:37.971Z,3.83
2019-01-03T21:50:09.511Z,5.37
2019-01-03T21:52:38.038Z,3.07
2019-01-03T21:55:06.616Z,4.13
2019-01-03T21:57:35.059Z,6.00
2019-01-03T22:00:05.254Z,3.23
2019-01-03T22:02:33.763Z,4.47
2019-01-03T22:05:02.313Z,5.17
2019-01-03T22:07:30.855Z,8.80
2019-01-03T22:09:59.440Z,6.27
2019-01-03T22:12:27.964Z,3.70
2019-01-03T22:14:56.419Z,3.30
2019-01-03T22:17:25.021Z,3.80
2019-01-03T22:19:53.460Z,3.73
2019-01-03T22:22:21.904Z,3.90
2019-01-03T22:24:50.421Z,3.27
2019-01-03T22:27:19.014Z,4.50
2019-01-03T22:29:47.462Z,6.57
2019-01-03T22:32:15.980Z,4.70
2019-01-03T22:34:44.429Z,5.97
2019-01-03T22:37:12.973Z,7.03
2019-01-03T22:39:41.460Z,6.23
2019-01-03T22:42:09.924Z,8.47
2019-01-03T22:44:38.443Z,10.07
2019-01-03T22:47:06.954Z,8.67
2019-01-03T22:49:36.369Z,10.80
2019-01-03T22:52:24.220Z,10.27
2019-01-03T22:54:52.743Z,12.67
2019-01-03T22:57:21.296Z,13.20
2019-01-03T22:59:49.884Z,12.37
2019-01-03T23:02:18.405Z,15.00
2019-01-03T23:04:49.273Z,11.40
2019-01-03T23:07:17.106Z,12.73
2019-01-03T23:09:47.174Z,12.97
2019-01-03T23:12:15.693Z,14.30
2019-01-03T23:14:44.199Z,13.87
2019-01-03T23:17:12.699Z,13.33
2019-01-03T23:19:41.153Z,16.07
2019-01-03T23:22:09.669Z,14.80
2019-01-03T23:24:38.191Z,16.00
2019-01-03T23:27:06.646Z,12.70
2019-01-03T23:29:35.573Z,15.53
2019-01-03T23:32:04.351Z,15.10
2019-01-03T23:34:32.801Z,15.27
2019-01-03T23:37:01.281Z,14.37
2019-01-03T23:39:29.797Z,12.23
2019-01-03T23:41:58.255Z,14.63
2019-01-03T23:44:26.701Z,16.50
2019-01-03T23:46:55.188Z,13.13
2019-01-03T23:49:23.651Z,10.07
2019-01-03T23:51:52.132Z,8.63
2019-01-03T23:54:20.672Z,8.50
2019-01-03T23:56:49.204Z,13.70
2019-01-03T23:59:17.672Z,12.17
